Time;durP1;ratioP1;P1;durP2;ratioP2;P2;SDS_P1;SDS_P2;PMS_P1;PMS_P2;Temp;Humidity;BMP_temperature;BMP_pressure;BME280_temperature;BME280_humidity;BME280_pressure;Samples;Min_cycle;Max_cycle;Signal;HPM_P1;HPM_P2
2023/06/23 00:00:37;;;;;;;;;11.00;9.00;;;;;20.36;72.14;101213.97;5059780;28;45398;-75
2023/06/23 00:03:04;;;;;;;;;9.67;9.00;;;;;20.40;72.54;101191.00;5060064;28;45541;-73
2023/06/23 00:05:30;;;;;;;;;7.00;6.33;;;;;20.51;71.97;101181.22;5039937;28;47248;-76
2023/06/23 00:07:55;;;;;;;;;11.00;10.00;;;;;20.60;71.83;101191.00;5041863;28;45547;-75
2023/06/23 00:10:21;;;;;;;;;7.33;7.33;;;;;20.59;71.71;101179.50;5059691;28;46183;-76
2023/06/23 00:12:48;;;;;;;;;6.67;5.00;;;;;20.59;71.97;101167.97;5041812;28;45471;-77
2023/06/23 00:15:14;;;;;;;;;7.67;7.00;;;;;20.66;71.54;101181.25;5059829;28;45528;-78
2023/06/23 00:17:44;;;;;;;;;7.00;6.33;;;;;20.68;71.41;101173.28;5041703;28;45435;-75
2023/06/23 00:20:12;;;;;;;;;7.67;6.33;;;;;20.70;70.91;101168.88;5060139;28;46577;-76
2023/06/23 00:22:40;;;;;;;;;9.67;8.33;;;;;20.65;71.20;101176.84;5059782;28;45449;-76
2023/06/23 00:25:09;;;;;;;;;7.33;6.33;;;;;20.54;71.59;101175.06;5031757;28;45400;-83
2023/06/23 00:27:37;;;;;;;;;11.67;9.67;;;;;20.42;71.85;101171.50;5053569;28;45564;-75
2023/06/23 00:30:02;;;;;;;;;9.33;8.33;;;;;20.10;72.58;101138.81;5058284;28;46658;-73
2023/06/23 00:32:28;;;;;;;;;11.00;10.00;;;;;20.24;72.80;101187.44;5037261;28;45778;-75
2023/06/23 00:34:53;;;;;;;;;11.00;10.67;;;;;20.22;73.23;101194.53;5048372;28;45388;-74
2023/06/23 00:37:19;;;;;;;;;8.00;7.33;;;;;20.12;72.45;101163.56;5040906;28;45612;-74
2023/06/23 00:39:44;;;;;;;;;9.67;7.67;;;;;20.33;72.72;101186.56;5040072;28;47685;-74
2023/06/23 00:42:10;;;;;;;;;8.00;8.00;;;;;20.32;72.21;101184.81;5057042;28;45409;-74
2023/06/23 00:44:37;;;;;;;;;8.33;7.67;;;;;20.20;72.13;101189.22;5058949;28;45512;-74
2023/06/23 00:47:04;;;;;;;;;7.33;6.67;;;;;20.27;72.29;101195.38;5041032;28;45466;-75
2023/06/23 00:49:30;;;;;;;;;10.00;8.33;;;;;20.38;72.40;101198.94;5039539;28;46426;-74
2023/06/23 00:52:01;;;;;;;;;8.67;8.67;;;;;20.34;71.92;101185.69;5057535;28;45576;-74
2023/06/23 00:54:28;;;;;;;;;9.33;9.00;;;;;20.28;72.97;101186.56;5057730;28;45648;-75
2023/06/23 00:56:58;;;;;;;;;8.00;7.00;;;;;20.26;71.95;101189.22;5054017;28;45514;-75
2023/06/23 00:59:30;;;;;;;;;9.33;8.67;;;;;20.30;72.11;101198.06;5037951;28;45464;-74
2023/06/23 01:02:00;;;;;;;;;8.67;7.67;;;;;20.19;71.92;101181.25;5058592;28;45556;-74
2023/06/23 01:04:28;;;;;;;;;7.00;6.00;;;;;20.30;71.49;101195.41;5040202;28;45597;-74
2023/06/23 01:07:21;;;;;;;;;8.00;8.00;;;;;20.33;71.61;101200.69;5058895;28;45494;-74
2023/06/23 01:10:05;;;;;;;;;7.33;7.00;;;;;20.33;71.27;101192.72;5057985;28;45371;-74
2023/06/23 01:12:58;;;;;;;;;8.67;7.33;;;;;20.34;71.45;101191.88;5053858;28;45568;-76
2023/06/23 01:15:39;;;;;;;;;9.33;8.67;;;;;20.35;71.13;101191.00;5043489;28;45447;-74
2023/06/23 01:18:18;;;;;;;;;6.33;5.67;;;;;20.19;71.58;101174.19;5058387;28;45696;-74
2023/06/23 01:20:46;;;;;;;;;10.00;7.33;;;;;20.27;71.50;101182.13;5039112;28;45746;-76
2023/06/23 01:23:35;;;;;;;;;10.33;9.33;;;;;20.32;71.72;101187.44;5036566;28;45505;-74
2023/06/23 01:26:04;;;;;;;;;9.00;8.33;;;;;20.36;71.92;101190.09;5042637;28;45473;-74
2023/06/23 01:28:32;;;;;;;;;8.00;7.33;;;;;20.32;71.80;101183.03;5040264;28;45602;-74
2023/06/23 01:31:02;;;;;;;;;9.33;9.33;;;;;20.00;71.75;101178.59;5057826;28;46633;-74
2023/06/23 01:33:37;;;;;;;;;8.00;5.67;;;;;19.95;71.65;101196.25;5038950;28;45240;-74
2023/06/23 01:36:14;;;;;;;;;7.00;6.00;;;;;19.72;72.06;101187.38;5057380;28;45560;-74
2023/06/23 01:38:44;;;;;;;;;10.67;8.67;;;;;19.65;72.42;101182.00;5057856;28;45470;-76
2023/06/23 01:41:14;;;;;;;;;9.67;9.00;;;;;19.57;73.73;101191.69;5057339;28;46157;-75
2023/06/23 01:43:44;;;;;;;;;11.00;9.00;;;;;19.52;73.95;101176.66;5057857;28;45413;-74
2023/06/23 01:46:14;;;;;;;;;12.00;10.00;;;;;19.62;73.68;101197.91;5057968;28;45344;-74
2023/06/23 01:48:44;;;;;;;;;10.67;8.67;;;;;19.66;73.83;101194.38;5057818;28;45538;-74
2023/06/23 01:51:11;;;;;;;;;9.33;9.33;;;;;19.46;74.04;101164.28;5057133;28;45447;-74
2023/06/23 01:53:38;;;;;;;;;8.67;7.00;;;;;19.61;74.20;101190.81;5057289;28;45486;-74
2023/06/23 01:56:06;;;;;;;;;9.67;8.33;;;;;19.56;74.05;101182.00;5039194;28;45431;-74
2023/06/23 01:58:37;;;;;;;;;7.33;7.00;;;;;19.51;74.04;101182.84;5057867;28;45458;-74
2023/06/23 02:01:05;;;;;;;;;12.67;10.00;;;;;19.40;73.86;101172.22;5055443;28;45342;-74
2023/06/23 02:03:33;;;;;;;;;11.00;8.67;;;;;19.42;74.41;101173.13;5057578;28;45441;-74
2023/06/23 02:06:01;;;;;;;;;9.33;9.00;;;;;19.47;74.64;101187.25;5055646;28;45547;-81
2023/06/23 02:08:28;;;;;;;;;9.33;9.33;;;;;19.57;74.83;101193.47;5056734;28;45416;-73
2023/06/23 02:10:55;;;;;;;;;10.33;9.33;;;;;19.60;74.28;101197.03;5056384;28;45426;-74
2023/06/23 02:13:24;;;;;;;;;12.00;10.00;;;;;19.61;74.49;101184.66;5056344;28;45441;-74
2023/06/23 02:15:52;;;;;;;;;8.00;8.00;;;;;19.59;73.74;101178.47;5038662;28;45312;-75
2023/06/23 02:18:19;;;;;;;;;8.00;7.67;;;;;19.72;72.94;101171.47;5057014;28;45492;-74
2023/06/23 02:20:47;;;;;;;;;9.67;8.00;;;;;19.77;72.83;101186.47;5056878;28;46168;-78
2023/06/23 02:23:15;;;;;;;;;7.33;6.33;;;;;19.79;72.73;101184.72;5052586;28;45368;-74
2023/06/23 02:25:42;;;;;;;;;11.67;10.00;;;;;19.73;72.95;101171.44;5051144;28;45545;-74
2023/06/23 02:28:10;;;;;;;;;11.33;10.00;;;;;19.74;73.56;101182.97;5053769;28;45575;-74
2023/06/23 02:30:37;;;;;;;;;8.00;8.00;;;;;19.81;73.71;101185.59;5056604;28;46131;-74
2023/06/23 02:33:03;;;;;;;;;11.00;10.00;;;;;19.74;73.69;101169.72;5056579;28;45438;-74
2023/06/23 02:35:29;;;;;;;;;9.00;8.00;;;;;19.81;73.73;101180.31;5042389;28;45545;-75
2023/06/23 02:38:00;;;;;;;;;10.33;9.67;;;;;19.80;73.28;101183.84;5056874;28;45488;-76
2023/06/23 02:40:30;;;;;;;;;8.00;8.00;;;;;19.70;73.19;101176.72;5038413;28;46250;-73
2023/06/23 02:43:05;;;;;;;;;8.33;8.33;;;;;19.84;72.83;101195.34;5056340;28;45512;-74
2023/06/23 02:45:39;;;;;;;;;10.33;10.00;;;;;19.80;72.54;101180.31;5056149;28;45344;-74
2023/06/23 02:48:13;;;;;;;;;9.33;8.33;;;;;19.69;72.71;101167.00;5057034;28;45702;-74
2023/06/23 02:50:40;;;;;;;;;9.00;9.00;;;;;19.78;72.28;101182.09;5055968;28;46073;-74
2023/06/23 02:53:13;;;;;;;;;11.33;9.67;;;;;19.70;72.56;101183.81;5056752;28;45372;-74
2023/06/23 02:55:44;;;;;;;;;8.33;7.00;;;;;19.72;72.67;101190.91;5056946;28;45592;-74
2023/06/23 02:58:13;;;;;;;;;13.00;10.67;;;;;19.77;72.71;101199.75;5057095;28;45312;-74
2023/06/23 03:00:38;;;;;;;;;9.00;8.33;;;;;19.70;73.17;101191.75;5055995;28;45503;-76
2023/06/23 03:03:10;;;;;;;;;7.67;7.00;;;;;19.58;73.57;101185.53;5056113;28;45387;-74
2023/06/23 03:05:35;;;;;;;;;10.00;8.00;;;;;19.59;73.14;101197.00;5056870;28;45517;-74
2023/06/23 03:08:01;;;;;;;;;8.67;8.33;;;;;19.62;72.83;101189.09;5056616;28;45474;-75
2023/06/23 03:10:28;;;;;;;;;8.33;7.33;;;;;19.66;72.63;101202.34;5056039;28;45291;-74
2023/06/23 03:12:54;;;;;;;;;8.33;7.67;;;;;19.61;72.63;101201.44;5055299;28;45394;-74
2023/06/23 03:15:20;;;;;;;;;9.00;8.00;;;;;19.69;72.70;101198.81;5056623;28;45490;-74
2023/06/23 03:17:48;;;;;;;;;12.67;10.00;;;;;19.67;72.51;101180.22;5057293;28;45464;-77
2023/06/23 03:20:35;;;;;;;;;10.00;9.67;;;;;19.74;73.06;101197.09;5056424;28;45572;-74
2023/06/23 03:23:08;;;;;;;;;8.33;7.00;;;;;19.72;73.16;101197.97;5056623;28;45351;-73
2023/06/23 03:25:37;;;;;;;;;11.00;9.33;;;;;19.68;73.41;101189.09;5056489;28;45480;-74
2023/06/23 03:28:08;;;;;;;;;7.67;7.00;;;;;19.78;73.37;101193.56;5056339;28;45512;-73
2023/06/23 03:30:39;;;;;;;;;8.67;8.67;;;;;19.86;72.95;101201.53;5056131;28;45554;-73
2023/06/23 03:33:14;;;;;;;;;9.00;9.00;;;;;19.78;72.28;101182.09;5056278;28;45387;-73
2023/06/23 03:35:44;;;;;;;;;9.67;9.33;;;;;19.85;72.51;101184.72;5047885;28;45395;-75
2023/06/23 03:38:14;;;;;;;;;10.00;7.00;;;;;19.87;72.16;101198.00;5049818;28;45595;-73
2023/06/23 03:40:47;;;;;;;;;9.33;7.00;;;;;19.76;72.04;101203.28;5038604;28;45259;-74
2023/06/23 03:43:25;;;;;;;;;11.33;9.33;;;;;19.73;71.84;101208.56;5037816;28;45542;-74
2023/06/23 03:45:58;;;;;;;;;11.67;10.00;;;;;19.73;72.58;101207.69;5055990;28;45475;-73
2023/06/23 03:48:27;;;;;;;;;10.33;10.00;;;;;19.78;72.84;101205.94;5037402;28;45424;-74
2023/06/23 03:50:55;;;;;;;;;10.67;10.00;;;;;19.70;72.47;101205.88;5055815;28;45572;-76
2023/06/23 03:53:24;;;;;;;;;9.00;8.33;;;;;19.62;72.76;101197.91;5038193;28;45525;-73
2023/06/23 03:55:52;;;;;;;;;11.00;10.33;;;;;19.76;73.11;101213.00;5055388;28;45425;-73
2023/06/23 03:58:19;;;;;;;;;11.67;9.67;;;;;19.65;72.89;101202.31;5055633;28;45234;-73
2023/06/23 04:00:47;;;;;;;;;10.67;9.00;;;;;19.63;73.16;101202.31;5055554;28;46725;-74
2023/06/23 04:03:15;;;;;;;;;11.33;9.00;;;;;19.34;73.14;101196.94;5055104;28;45439;-74
2023/06/23 04:05:43;;;;;;;;;9.67;9.00;;;;;19.48;73.04;101213.75;5054818;28;45509;-76
2023/06/23 04:08:10;;;;;;;;;9.33;8.00;;;;;19.44;73.42;101221.69;5040080;28;45266;-77
2023/06/23 04:10:37;;;;;;;;;7.33;7.33;;;;;19.47;72.62;101211.09;5055736;28;45437;-73
2023/06/23 04:13:05;;;;;;;;;12.67;11.00;;;;;19.54;72.47;101225.28;5055678;28;45826;-73
2023/06/23 04:15:34;;;;;;;;;9.33;9.00;;;;;19.47;72.34;101219.03;5036698;28;45336;-73
2023/06/23 04:18:02;;;;;;;;;10.33;8.67;;;;;19.37;72.73;101220.78;5055410;28;45676;-75
2023/06/23 04:20:30;;;;;;;;;9.33;8.33;;;;;19.35;72.49;101216.34;5055561;28;46247;-76
2023/06/23 04:22:57;;;;;;;;;10.00;10.00;;;;;19.34;72.77;101220.78;5055733;28;45447;-73
2023/06/23 04:25:24;;;;;;;;;11.67;10.00;;;;;19.32;72.73;101221.63;5054720;28;45798;-73
2023/06/23 04:27:56;;;;;;;;;10.33;8.67;;;;;19.29;73.68;101225.16;5055832;28;45343;-73
2023/06/23 04:30:24;;;;;;;;;10.00;9.00;;;;;19.31;73.35;101233.13;5054431;28;46373;-73
2023/06/23 04:32:49;;;;;;;;;12.00;9.67;;;;;19.35;73.17;101235.78;5055381;28;45426;-73
2023/06/23 04:35:15;;;;;;;;;9.00;8.00;;;;;19.34;72.74;101226.06;5036859;28;45443;-73
2023/06/23 04:37:47;;;;;;;;;10.00;10.00;;;;;19.37;72.92;101238.44;5037588;28;45474;-73
2023/06/23 04:40:48;;;;;;;;;10.00;7.67;;;;;19.39;72.63;101242.84;5057707;28;46252;-73
2023/06/23 04:43:19;;;;;;;;;9.33;8.00;;;;;19.32;72.37;101240.16;5025225;28;45514;-75
2023/06/23 04:46:11;;;;;;;;;10.00;10.00;;;;;19.33;72.59;101234.00;5058581;28;45386;-81
2023/06/23 04:48:47;;;;;;;;;10.67;10.67;;;;;19.25;72.65;101241.91;5058830;28;45544;-73
2023/06/23 04:51:15;;;;;;;;;9.33;9.33;;;;;19.38;72.89;101245.53;5043898;28;46237;-73
2023/06/23 04:53:49;;;;;;;;;11.33;10.33;;;;;19.37;72.68;101243.72;5040047;28;45460;-73
2023/06/23 04:56:17;;;;;;;;;13.33;11.33;;;;;19.43;72.20;101238.47;5058934;28;45498;-73
2023/06/23 04:58:50;;;;;;;;;9.67;8.67;;;;;19.47;71.60;101237.59;5058086;28;45480;-73
2023/06/23 05:01:18;;;;;;;;;10.67;10.67;;;;;19.30;71.88;101223.38;5057653;28;45478;-73
2023/06/23 05:03:46;;;;;;;;;11.00;10.00;;;;;19.55;72.18;101249.09;5040119;28;45612;-76
2023/06/23 05:06:13;;;;;;;;;9.67;9.33;;;;;19.62;71.35;101242.09;5058696;28;45497;-73
2023/06/23 05:08:40;;;;;;;;;11.67;10.00;;;;;19.51;71.55;101249.97;5058138;28;45433;-73
2023/06/23 05:11:06;;;;;;;;;11.67;9.33;;;;;19.47;71.30;101232.28;5036352;28;45691;-80
2023/06/23 05:13:36;;;;;;;;;10.67;9.33;;;;;19.49;71.84;101238.50;5057362;28;45782;-73
2023/06/23 05:16:03;;;;;;;;;9.00;8.33;;;;;19.53;71.95;101232.31;5057360;28;45604;-74
2023/06/23 05:18:29;;;;;;;;;10.33;9.00;;;;;19.61;71.51;101214.69;5057919;28;45387;-75
2023/06/23 05:21:00;;;;;;;;;14.33;11.33;;;;;19.79;71.34;101216.53;5039474;28;48221;-74
2023/06/23 05:23:27;;;;;;;;;15.00;12.67;;;;;19.92;70.26;101224.53;5053434;28;45450;-74
2023/06/23 05:25:56;;;;;;;;;10.33;10.00;;;;;19.97;70.90;101228.06;5039683;28;45396;-75
2023/06/23 05:28:26;;;;;;;;;9.00;8.00;;;;;20.23;70.35;101222.81;5057419;28;45576;-74
2023/06/23 05:30:55;;;;;;;;;10.00;8.00;;;;;20.45;69.86;101226.34;5029500;28;46156;-73
2023/06/23 05:33:24;;;;;;;;;8.33;8.33;;;;;20.54;69.06;101215.75;5037429;28;45498;-73
2023/06/23 05:35:52;;;;;;;;;12.00;9.33;;;;;20.67;68.49;101229.91;5038566;28;45567;-74
2023/06/23 05:38:19;;;;;;;;;8.33;6.67;;;;;20.81;68.14;101224.59;5057629;28;45545;-74
2023/06/23 05:40:45;;;;;;;;;9.00;8.33;;;;;20.95;66.81;101208.63;5057116;28;46204;-73
2023/06/23 05:43:11;;;;;;;;;12.00;10.00;;;;;21.19;67.29;101226.31;5057374;28;45266;-73
2023/06/23 05:45:37;;;;;;;;;12.00;10.00;;;;;21.28;66.71;101214.75;5057073;28;45513;-73
2023/06/23 05:48:12;;;;;;;;;8.33;8.33;;;;;21.39;66.72;101228.91;5049357;28;45734;-73
2023/06/23 05:50:40;;;;;;;;;9.67;8.67;;;;;21.43;66.40;101233.34;5052046;28;45522;-74
2023/06/23 05:53:15;;;;;;;;;11.00;8.33;;;;;21.51;66.01;101220.03;5051889;28;45606;-74
2023/06/23 05:55:46;;;;;;;;;10.00;8.67;;;;;21.64;66.26;101230.56;5053345;28;45363;-74
2023/06/23 05:58:13;;;;;;;;;12.33;10.67;;;;;21.77;65.58;101239.38;5046422;28;45505;-76
2023/06/23 06:00:45;;;;;;;;;10.67;8.67;;;;;22.02;65.38;101215.28;5036592;28;48106;-74
2023/06/23 06:03:15;;;;;;;;;9.67;7.67;;;;;24.30;62.16;101205.66;5035579;28;45452;-76
2023/06/23 06:05:45;;;;;;;;;9.00;8.00;;;;;26.43;56.41;101198.66;5028134;28;45425;-74
2023/06/23 06:08:12;;;;;;;;;11.33;11.00;;;;;28.12;51.80;101207.25;5039502;28;45383;-74
2023/06/23 06:10:39;;;;;;;;;8.67;8.00;;;;;29.21;47.56;101210.69;5038262;28;47810;-81
2023/06/23 06:13:07;;;;;;;;;7.67;7.67;;;;;29.77;44.80;101212.19;5051118;28;45534;-77
2023/06/23 06:15:34;;;;;;;;;7.67;7.00;;;;;30.44;43.91;101219.34;5030860;28;45448;-82
2023/06/23 06:18:03;;;;;;;;;9.33;7.33;;;;;31.17;42.83;101212.56;5039336;28;45352;-80
2023/06/23 06:20:31;;;;;;;;;8.00;5.67;;;;;32.00;41.64;101214.09;5054230;28;45593;-77
2023/06/23 06:22:57;;;;;;;;;9.00;8.33;;;;;32.87;40.82;101206.09;5043335;28;45473;-77
2023/06/23 06:25:25;;;;;;;;;7.67;7.33;;;;;33.44;38.68;101210.28;5056095;28;45566;-76
2023/06/23 06:27:52;;;;;;;;;7.33;7.33;;;;;33.71;39.38;101209.75;5038662;28;45491;-74
2023/06/23 06:30:20;;;;;;;;;9.33;8.33;;;;;34.29;35.73;101200.09;5052094;28;48085;-75
2023/06/23 06:32:49;;;;;;;;;8.33;8.00;;;;;34.81;36.45;101200.53;5056100;28;45399;-75
2023/06/23 06:35:16;;;;;;;;;9.00;7.00;;;;;35.49;33.42;101228.03;5037607;28;45612;-76
2023/06/23 06:37:47;;;;;;;;;7.33;6.33;;;;;35.31;34.33;101220.09;5056416;28;45451;-75
2023/06/23 06:40:17;;;;;;;;;5.67;5.67;;;;;36.04;33.31;101228.03;5056189;28;46073;-74
2023/06/23 06:42:43;;;;;;;;;9.67;8.67;;;;;36.24;32.53;101193.22;5055868;28;45759;-74
2023/06/23 06:45:09;;;;;;;;;6.33;6.00;;;;;36.79;32.56;101221.25;5037764;28;45536;-76
2023/06/23 06:47:40;;;;;;;;;7.33;6.00;;;;;37.09;31.72;101211.84;5038133;28;45589;-75
2023/06/23 06:50:08;;;;;;;;;5.67;5.67;;;;;36.90;31.23;101210.44;5055785;28;45544;-76
2023/06/23 06:52:36;;;;;;;;;6.67;5.67;;;;;37.48;31.38;101213.59;5055416;28;45500;-75
2023/06/23 06:55:03;;;;;;;;;7.00;7.00;;;;;38.18;30.17;101214.81;5051523;28;45351;-75
2023/06/23 06:57:30;;;;;;;;;8.00;7.00;;;;;38.89;29.01;101226.63;5048050;28;45507;-76
2023/06/23 06:59:55;;;;;;;;;6.33;6.00;;;;;39.33;28.41;101222.22;5056057;28;45415;-74
2023/06/23 07:02:22;;;;;;;;;7.00;6.33;;;;;39.82;27.82;101221.97;5054846;28;45358;-76
2023/06/23 07:04:47;;;;;;;;;6.67;6.33;;;;;40.32;27.93;101230.56;5043748;28;45531;-76
2023/06/23 07:07:14;;;;;;;;;8.00;6.33;;;;;40.81;26.61;101225.44;5052866;28;45344;-76
2023/06/23 07:09:40;;;;;;;;;6.00;5.00;;;;;41.35;26.68;101227.09;5046556;28;45481;-76
2023/06/23 07:12:06;;;;;;;;;8.33;7.33;;;;;41.79;27.07;101224.06;5055980;28;45484;-75
2023/06/23 07:14:32;;;;;;;;;5.00;4.67;;;;;41.83;25.50;101223.63;5055643;28;45520;-74
2023/06/23 07:16:57;;;;;;;;;1.33;1.33;;;;;42.26;25.52;101224.28;5055447;28;45296;-74
2023/06/23 07:19:23;;;;;;;;;8.00;7.33;;;;;42.27;24.92;101231.50;5055334;28;45506;-72
2023/06/23 07:21:48;;;;;;;;;5.33;5.33;;;;;42.24;25.45;101226.28;5055719;28;45406;-72
2023/06/23 07:24:14;;;;;;;;;6.33;6.00;;;;;42.49;25.41;101219.38;5038635;28;45670;-73
2023/06/23 07:26:40;;;;;;;;;6.00;6.00;;;;;43.12;24.81;101218.84;5029749;28;45495;-70
2023/06/23 07:29:06;;;;;;;;;6.00;5.00;;;;;43.23;25.07;101215.88;5052471;28;46136;-73
2023/06/23 07:31:33;;;;;;;;;4.33;4.33;;;;;43.82;24.49;101215.63;5054789;28;45737;-71
2023/06/23 07:33:58;;;;;;;;;5.67;5.00;;;;;44.30;22.78;101217.16;5055378;28;45323;-71
2023/06/23 07:36:24;;;;;;;;;5.67;5.67;;;;;43.80;23.36;101206.66;5056658;28;45557;-74
2023/06/23 07:38:50;;;;;;;;;5.33;5.33;;;;;44.21;23.05;101207.09;5056277;28;45590;-72
2023/06/23 07:41:15;;;;;;;;;4.00;3.67;;;;;44.69;22.81;101200.28;5037984;28;45622;-73
2023/06/23 07:43:43;;;;;;;;;7.00;6.00;;;;;45.15;22.15;101208.34;5037643;28;45522;-73
2023/06/23 07:46:09;;;;;;;;;5.33;5.33;;;;;44.70;22.16;101198.41;5056394;28;45531;-72
2023/06/23 07:48:34;;;;;;;;;8.00;6.00;;;;;44.74;22.24;101206.16;5055763;28;46181;-73
2023/06/23 07:51:00;;;;;;;;;5.67;5.67;;;;;44.61;22.74;101211.22;5055820;28;45339;-72
2023/06/23 07:53:25;;;;;;;;;6.00;6.00;;;;;44.81;23.29;101198.97;5055964;28;45516;-72
2023/06/23 07:55:52;;;;;;;;;6.33;5.33;;;;;45.29;22.34;101193.94;5055663;28;45457;-78
2023/06/23 07:58:18;;;;;;;;;7.67;6.00;;;;;45.28;22.46;101194.97;5033936;28;48130;-78
2023/06/23 08:00:43;;;;;;;;;6.00;5.33;;;;;45.48;21.86;101195.56;5054621;28;45567;-78
2023/06/23 08:03:09;;;;;;;;;5.67;4.67;;;;;45.52;22.13;101193.34;5054809;28;45543;-78
2023/06/23 08:05:37;;;;;;;;;6.00;6.00;;;;;45.69;21.06;101186.00;5056093;28;45426;-78
2023/06/23 08:08:03;;;;;;;;;6.00;6.00;;;;;46.21;20.73;101183.84;5021680;28;47968;-78
2023/06/23 08:10:29;;;;;;;;;5.67;5.33;;;;;46.37;21.58;101188.50;5055727;28;45365;-77
2023/06/23 08:12:54;;;;;;;;;5.33;5.00;;;;;46.80;20.93;101200.25;5055366;28;45363;-78
2023/06/23 08:15:20;;;;;;;;;6.00;5.67;;;;;47.55;20.61;101201.72;5059420;28;45395;-78
2023/06/23 08:17:46;;;;;;;;;12.67;12.67;;;;;47.17;20.97;101209.84;5058189;28;45577;-77
2023/06/23 08:20:11;;;;;;;;;5.00;5.00;;;;;47.42;21.13;101196.75;5058299;28;45506;-79
2023/06/23 08:22:40;;;;;;;;;5.00;4.00;;;;;48.50;19.75;101199.69;5059191;28;45489;-78
2023/06/23 08:25:07;;;;;;;;;5.33;5.33;;;;;48.69;19.32;101192.75;5040884;28;45621;-78
2023/06/23 08:27:32;;;;;;;;;4.67;4.67;;;;;48.57;19.32;101201.53;5058140;28;45358;-78
2023/06/23 08:29:58;;;;;;;;;5.00;5.00;;;;;48.47;19.95;101205.59;5041839;28;45327;-79
2023/06/23 08:32:24;;;;;;;;;4.00;4.00;;;;;48.74;19.04;101187.53;5058404;28;45619;-78
2023/06/23 08:34:49;;;;;;;;;9.00;9.00;;;;;48.69;18.99;101176.13;5040674;28;45380;-79
2023/06/23 08:37:15;;;;;;;;;4.67;3.67;;;;;48.41;19.76;101195.28;5039877;28;46707;-78
2023/06/23 08:39:41;;;;;;;;;10.00;9.00;;;;;49.26;18.54;101189.34;5057987;28;45481;-78
2023/06/23 08:42:07;;;;;;;;;5.00;5.00;;;;;49.02;18.49;101198.84;5057939;28;45536;-79
2023/06/23 08:44:36;;;;;;;;;6.33;6.33;;;;;48.49;18.66;101209.03;5052532;28;45380;-81
2023/06/23 08:47:06;;;;;;;;;5.00;5.00;;;;;45.52;21.23;101196.94;5043682;28;45996;-75
2023/06/23 08:49:34;;;;;;;;;6.00;6.00;;;;;44.29;22.73;101198.91;5057891;28;45905;-76
2023/06/23 08:52:01;;;;;;;;;6.00;6.00;;;;;44.29;22.20;101204.41;5058436;28;45519;-73
2023/06/23 08:54:27;;;;;;;;;6.33;6.33;;;;;44.58;22.62;101198.66;5059156;28;45942;-75
2023/06/23 08:56:53;;;;;;;;;6.33;5.00;;;;;44.72;22.11;101182.56;5060586;28;45543;-74
2023/06/23 08:59:20;;;;;;;;;6.00;5.00;;;;;44.37;22.82;101195.34;5059506;28;45344;-74
2023/06/23 09:01:45;;;;;;;;;6.67;6.67;;;;;44.63;23.30;101198.16;5060123;28;45673;-75
2023/06/23 09:04:11;;;;;;;;;4.67;4.67;;;;;44.59;22.97;101194.00;5058805;28;45283;-75
2023/06/23 09:06:38;;;;;;;;;5.67;5.67;;;;;44.34;22.87;101179.16;5041306;28;47837;-77
2023/06/23 09:09:03;;;;;;;;;6.67;5.67;;;;;43.94;23.67;101189.59;5059286;28;45418;-75
2023/06/23 09:11:29;;;;;;;;;6.33;6.33;;;;;44.00;23.45;101194.47;5058997;28;46232;-75
2023/06/23 09:13:58;;;;;;;;;6.33;6.33;;;;;43.36;24.20;101185.34;5040983;28;45606;-75
2023/06/23 09:16:25;;;;;;;;;6.33;5.67;;;;;42.40;24.83;101199.16;5057860;28;45508;-76
2023/06/23 09:18:52;;;;;;;;;5.00;5.00;;;;;42.21;24.61;101182.69;5058734;28;45349;-75
2023/06/23 09:21:20;;;;;;;;;5.00;5.00;;;;;42.40;24.93;101179.03;5054599;28;45421;-75
2023/06/23 09:24:02;;;;;;;;;8.00;7.67;;;;;41.95;25.16;101180.47;5058442;28;45542;-74
2023/06/23 09:26:30;;;;;;;;;7.00;6.33;;;;;42.56;25.08;101184.84;5039410;28;46515;-74
2023/06/23 09:29:16;;;;;;;;;7.33;7.33;;;;;42.71;24.27;101185.22;5058856;28;45384;-74
2023/06/23 09:31:42;;;;;;;;;7.00;7.00;;;;;42.44;25.79;101186.88;5059055;28;45304;-75
2023/06/23 09:34:08;;;;;;;;;8.33;7.67;;;;;42.79;25.54;101189.97;5059874;28;45261;-73
2023/06/23 09:36:35;;;;;;;;;7.67;6.67;;;;;42.86;25.13;101178.28;5040429;28;46215;-74
2023/06/23 09:39:01;;;;;;;;;6.67;6.00;;;;;43.13;24.63;101176.56;5059129;28;45445;-75
2023/06/23 09:41:31;;;;;;;;;6.00;6.00;;;;;42.46;24.69;101175.72;5040574;28;45407;-78
2023/06/23 09:43:57;;;;;;;;;5.67;5.00;;;;;42.90;24.79;101179.72;5059319;28;45535;-74
2023/06/23 09:46:22;;;;;;;;;5.00;5.00;;;;;42.79;24.66;101135.88;5058452;28;45264;-77
2023/06/23 09:48:49;;;;;;;;;8.33;8.00;;;;;42.61;24.50;101163.28;5058546;28;45468;-74
2023/06/23 09:51:18;;;;;;;;;8.67;8.67;;;;;42.45;24.42;101166.63;5058969;28;45344;-77
2023/06/23 09:53:44;;;;;;;;;6.33;5.67;;;;;42.54;24.79;101167.66;5058755;28;45447;-76
2023/06/23 09:56:28;;;;;;;;;7.67;7.33;;;;;42.48;24.65;101166.34;5058760;28;45884;-73
2023/06/23 09:58:54;;;;;;;;;5.33;4.33;;;;;42.46;24.68;101168.38;5040418;28;45518;-79
2023/06/23 10:01:20;;;;;;;;;7.33;6.67;;;;;42.64;23.94;101162.09;5040141;28;45252;-77
2023/06/23 10:03:48;;;;;;;;;5.33;5.33;;;;;42.34;23.86;101169.50;5058328;28;45401;-74
2023/06/23 10:06:40;;;;;;;;;6.33;5.33;;;;;42.09;24.42;101165.47;5058368;28;45446;-80
2023/06/23 10:09:09;;;;;;;;;5.33;4.67;;;;;42.19;24.86;101163.59;5038459;28;45719;-78
2023/06/23 10:11:39;;;;;;;;;6.67;6.67;;;;;41.70;26.39;101168.16;5058124;28;45491;-74
2023/06/23 10:14:10;;;;;;;;;8.00;7.00;;;;;40.99;26.80;101169.03;5058509;28;45416;-73
2023/06/23 10:16:41;;;;;;;;;6.00;5.33;;;;;41.11;25.27;101167.94;5058047;28;45434;-75
2023/06/23 10:19:07;;;;;;;;;11.00;11.00;;;;;40.91;26.23;101163.38;5058252;28;45432;-76
2023/06/23 10:21:33;;;;;;;;;6.33;6.00;;;;;41.26;26.13;101162.97;5058491;28;45281;-75
2023/06/23 10:24:02;;;;;;;;;6.00;6.00;;;;;40.44;26.36;101163.78;5058233;28;45477;-77
2023/06/23 10:26:33;;;;;;;;;6.00;5.67;;;;;39.23;27.65;101171.16;5057556;28;45551;-77
2023/06/23 10:29:04;;;;;;;;;5.33;4.67;;;;;38.74;27.80;101168.66;5039352;28;45367;-76
2023/06/23 10:31:31;;;;;;;;;7.00;7.00;;;;;37.80;30.31;101167.63;5057752;28;45289;-73
2023/06/23 10:34:03;;;;;;;;;5.00;5.00;;;;;38.17;30.06;101166.72;5040014;28;45547;-80
2023/06/23 10:36:30;;;;;;;;;7.00;6.00;;;;;37.91;30.77;101169.53;5056766;28;46152;-78
2023/06/23 10:39:00;;;;;;;;;7.00;7.00;;;;;38.03;30.67;101172.34;5057846;28;45354;-78
2023/06/23 10:41:27;;;;;;;;;6.00;6.00;;;;;37.65;30.59;101160.59;5039415;28;45292;-79
2023/06/23 10:43:55;;;;;;;;;9.00;8.00;;;;;37.93;30.28;101163.97;5057746;28;45473;-75
2023/06/23 10:46:26;;;;;;;;;7.00;6.00;;;;;37.87;30.07;101148.09;5039131;28;47739;-79
2023/06/23 10:48:52;;;;;;;;;6.00;6.00;;;;;37.32;30.07;101170.25;5039423;28;45737;-74
2023/06/23 10:51:18;;;;;;;;;7.33;6.00;;;;;36.77;31.23;101166.91;5057518;28;45350;-73
2023/06/23 10:53:50;;;;;;;;;6.33;5.67;;;;;36.61;32.89;101158.91;5057686;28;45313;-78
2023/06/23 10:56:50;;;;;;;;;6.67;6.33;;;;;36.19;33.04;101168.19;5057372;28;46574;-73
2023/06/23 10:59:29;;;;;;;;;8.00;7.67;;;;;36.30;33.07;101160.16;5049797;28;45342;-74
2023/06/23 11:02:01;;;;;;;;;7.00;6.67;;;;;36.05;33.09;101155.47;5057628;28;45449;-75
2023/06/23 11:04:29;;;;;;;;;6.67;6.33;;;;;36.12;33.04;101162.25;5039501;28;45261;-75
2023/06/23 11:07:21;;;;;;;;;5.67;5.67;;;;;35.43;32.83;101164.97;5057235;28;46031;-73
2023/06/23 11:09:53;;;;;;;;;7.00;7.00;;;;;34.81;34.36;101172.53;5055152;28;45417;-73
2023/06/23 11:12:34;;;;;;;;;6.00;6.00;;;;;33.94;35.07;101170.44;5039075;28;45387;-73
2023/06/23 11:15:06;;;;;;;;;7.00;7.00;;;;;33.83;36.70;101165.66;5039290;28;45527;-74
2023/06/23 11:17:40;;;;;;;;;7.00;7.00;;;;;33.47;37.65;101164.06;5056837;28;46035;-73
2023/06/23 11:20:10;;;;;;;;;8.00;7.00;;;;;33.35;37.39;101149.38;5039475;28;45491;-74
2023/06/23 11:22:40;;;;;;;;;9.33;7.00;;;;;33.16;38.43;101152.22;5039137;28;45418;-74
2023/06/23 11:25:06;;;;;;;;;4.33;4.00;;;;;32.76;37.56;101148.09;5039088;28;45243;-76
2023/06/23 11:27:32;;;;;;;;;7.33;7.00;;;;;32.69;38.23;101153.84;5056740;28;45497;-76
2023/06/23 11:30:18;;;;;;;;;7.00;7.00;;;;;32.68;38.58;101143.94;5057061;28;45333;-73